Time;durP1;ratioP1;P1;durP2;ratioP2;P2;SDS_P1;SDS_P2;PMS_P1;PMS_P2;Temp;Humidity;BMP_temperature;BMP_pressure;BME280_temperature;BME280_humidity;BME280_pressure;Samples;Min_cycle;Max_cycle;Signal;HPM_P1;HPM_P2
2023/10/11 00:00:49;;;;;;;7.97;3.60;;;;;;;;;;5024881;28;20048;-58
2023/10/11 00:05:51;;;;;;;10.98;4.82;;;;;;;;;;5025413;28;20049;-58
2023/10/11 00:08:17;;;;;;;11.05;3.80;;;;;;;;;;5027084;28;20408;-58
2023/10/11 00:10:54;;;;;;;9.18;3.90;;;;;;;;;;5024249;28;20053;-58
2023/10/11 00:13:32;;;;;;;7.32;3.65;;;;;;;;;;5023545;28;20029;-58
2023/10/11 00:16:07;;;;;;;10.65;4.00;;;;;;;;;;5020683;28;20041;-58
2023/10/11 00:18:35;;;;;;;9.65;3.80;;;;;;;;;;5023868;28;20045;-58
2023/10/11 00:21:10;;;;;;;12.93;3.60;;;;;;;;;;5020085;28;20040;-58
2023/10/11 00:23:38;;;;;;;10.15;3.67;;;;;;;;;;5021326;28;20041;-58
2023/10/11 00:26:06;;;;;;;8.10;3.28;;;;;;;;;;5025819;28;20378;-60
2023/10/11 00:28:33;;;;;;;11.25;3.80;;;;;;;;;;5020707;28;20421;-59
2023/10/11 00:31:01;;;;;;;9.63;3.83;;;;;;;;;;5005597;28;20042;-59
2023/10/11 00:33:29;;;;;;;13.68;4.55;;;;;;;;;;5021197;28;20037;-59
2023/10/11 00:35:55;;;;;;;9.25;3.55;;;;;;;;;;5024498;28;20041;-59
2023/10/11 00:38:27;;;;;;;9.20;4.07;;;;;;;;;;5017613;28;20030;-59
2023/10/11 00:41:01;;;;;;;10.68;3.83;;;;;;;;;;5016711;28;20044;-59
2023/10/11 00:43:38;;;;;;;12.23;3.92;;;;;;;;;;5022184;28;20050;-59
2023/10/11 00:46:10;;;;;;;9.20;3.90;;;;;;;;;;5019911;28;20038;-59
2023/10/11 00:48:37;;;;;;;9.15;3.60;;;;;;;;;;5022370;28;20037;-59
2023/10/11 00:51:07;;;;;;;13.15;3.90;;;;;;;;;;5021494;28;20132;-59
2023/10/11 00:53:34;;;;;;;10.00;3.92;;;;;;;;;;5021175;28;20037;-59
2023/10/11 00:56:04;;;;;;;9.82;3.60;;;;;;;;;;5020451;28;20057;-59
2023/10/11 00:58:31;;;;;;;8.52;4.20;;;;;;;;;;5023057;28;20060;-59
2023/10/11 01:01:00;;;;;;;12.18;3.92;;;;;;;;;;5018906;28;20485;-59
2023/10/11 01:03:31;;;;;;;9.15;3.63;;;;;;;;;;5018147;28;20029;-59
2023/10/11 01:05:59;;;;;;;10.00;4.25;;;;;;;;;;5021084;28;20065;-59
2023/10/11 01:08:26;;;;;;;10.63;3.65;;;;;;;;;;5019015;28;20029;-59
2023/10/11 01:10:53;;;;;;;8.00;3.35;;;;;;;;;;5024541;28;20033;-59
2023/10/11 01:13:19;;;;;;;10.02;3.97;;;;;;;;;;5026424;28;20048;-58
2023/10/11 01:15:47;;;;;;;8.60;3.95;;;;;;;;;;5019259;28;20064;-59
2023/10/11 01:18:13;;;;;;;12.90;4.05;;;;;;;;;;5023267;28;20029;-59
2023/10/11 01:20:40;;;;;;;10.93;4.50;;;;;;;;;;5024222;28;20033;-60
2023/10/11 01:23:07;;;;;;;11.02;3.80;;;;;;;;;;5018937;28;20531;-59
2023/10/11 01:25:33;;;;;;;10.75;3.58;;;;;;;;;;5017875;28;20034;-59
2023/10/11 01:28:00;;;;;;;12.57;4.30;;;;;;;;;;5022025;28;20398;-58
2023/10/11 01:30:27;;;;;;;11.95;4.45;;;;;;;;;;5024257;28;20072;-59
2023/10/11 01:32:57;;;;;;;7.78;3.78;;;;;;;;;;5020756;28;20053;-59
2023/10/11 01:35:35;;;;;;;10.07;3.65;;;;;;;;;;5019427;28;20057;-59
2023/10/11 01:38:04;;;;;;;9.88;3.97;;;;;;;;;;5021269;28;20505;-59
2023/10/11 01:40:32;;;;;;;8.77;3.78;;;;;;;;;;5028842;28;20045;-59
2023/10/11 01:43:00;;;;;;;13.48;4.05;;;;;;;;;;5026486;28;20045;-59
2023/10/11 01:45:26;;;;;;;9.45;3.95;;;;;;;;;;5026884;28;20087;-60
2023/10/11 01:47:56;;;;;;;11.20;3.83;;;;;;;;;;5027484;28;20053;-59
2023/10/11 01:50:24;;;;;;;9.02;3.97;;;;;;;;;;5025354;28;20044;-58
2023/10/11 01:52:51;;;;;;;12.85;4.35;;;;;;;;;;5027804;28;20042;-58
2023/10/11 01:55:20;;;;;;;9.02;3.67;;;;;;;;;;5024117;28;20040;-59
2023/10/11 01:57:48;;;;;;;15.55;3.78;;;;;;;;;;5006796;28;20038;-59
2023/10/11 02:00:16;;;;;;;9.05;4.30;;;;;;;;;;4990489;28;20038;-59
2023/10/11 02:02:58;;;;;;;12.32;5.03;;;;;;;;;;5023082;28;20417;-59
2023/10/11 02:05:25;;;;;;;6.85;4.22;;;;;;;;;;5023631;28;20034;-59
2023/10/11 02:07:52;;;;;;;9.57;4.32;;;;;;;;;;5024755;28;20060;-58
2023/10/11 02:10:27;;;;;;;9.75;3.95;;;;;;;;;;5028454;28;20034;-59
2023/10/11 02:12:57;;;;;;;8.25;4.45;;;;;;;;;;5025537;28;20515;-59
2023/10/11 02:15:34;;;;;;;13.35;4.85;;;;;;;;;;5026477;28;20440;-59
2023/10/11 02:18:07;;;;;;;8.70;4.03;;;;;;;;;;5026135;28;20054;-60
2023/10/11 02:20:35;;;;;;;8.13;3.65;;;;;;;;;;5033918;28;20037;-59
2023/10/11 02:23:01;;;;;;;8.55;4.25;;;;;;;;;;5022851;28;20033;-59
2023/10/11 02:25:27;;;;;;;11.88;3.90;;;;;;;;;;5018979;28;20051;-57
2023/10/11 02:27:54;;;;;;;13.63;4.10;;;;;;;;;;5025846;28;20116;-59
2023/10/11 02:30:24;;;;;;;13.13;4.00;;;;;;;;;;5021536;28;20038;-58
2023/10/11 02:32:52;;;;;;;8.23;3.83;;;;;;;;;;5023435;28;20052;-58
2023/10/11 02:35:19;;;;;;;13.65;4.97;;;;;;;;;;5019839;28;20037;-58
2023/10/11 02:37:46;;;;;;;9.95;4.75;;;;;;;;;;5023515;28;20038;-58
2023/10/11 02:40:22;;;;;;;9.38;4.43;;;;;;;;;;5026387;28;20041;-57
2023/10/11 02:42:56;;;;;;;9.68;3.88;;;;;;;;;;5026567;28;20045;-58
2023/10/11 02:45:23;;;;;;;13.13;4.20;;;;;;;;;;5028186;28;20093;-59
2023/10/11 02:47:58;;;;;;;14.52;4.82;;;;;;;;;;5022298;28;20050;-59
2023/10/11 02:50:25;;;;;;;10.23;4.50;;;;;;;;;;5015111;28;20414;-59
2023/10/11 02:52:59;;;;;;;11.75;4.10;;;;;;;;;;5025858;28;20049;-58
2023/10/11 02:55:27;;;;;;;11.70;4.15;;;;;;;;;;5039007;28;20417;-59
2023/10/11 02:58:21;;;;;;;13.60;4.25;;;;;;;;;;5022821;28;20033;-59
2023/10/11 03:00:47;;;;;;;10.82;4.10;;;;;;;;;;5023352;28;20679;-58
2023/10/11 03:03:15;;;;;;;14.35;5.10;;;;;;;;;;5022264;28;20041;-59
2023/10/11 03:05:44;;;;;;;11.98;4.20;;;;;;;;;;5024713;28;20037;-59
2023/10/11 03:08:13;;;;;;;9.88;4.10;;;;;;;;;;5026055;28;20045;-59
2023/10/11 03:10:45;;;;;;;16.48;4.53;;;;;;;;;;5023586;28;20056;-58
2023/10/11 03:13:19;;;;;;;13.73;4.90;;;;;;;;;;5023964;28;20033;-59
2023/10/11 03:15:49;;;;;;;11.32;4.60;;;;;;;;;;5023502;28;20049;-58
2023/10/11 03:18:32;;;;;;;11.63;4.25;;;;;;;;;;5022867;28;20037;-58
2023/10/11 03:21:09;;;;;;;12.88;4.70;;;;;;;;;;5024304;28;20413;-58
2023/10/11 03:23:46;;;;;;;9.82;4.57;;;;;;;;;;5026497;28;20042;-58
2023/10/11 03:26:18;;;;;;;16.15;4.50;;;;;;;;;;5025265;28;20414;-57
2023/10/11 03:28:59;;;;;;;11.90;4.95;;;;;;;;;;5020257;28;20053;-58
2023/10/11 03:31:28;;;;;;;13.93;4.45;;;;;;;;;;5020706;28;20029;-58
2023/10/11 03:34:14;;;;;;;10.93;4.78;;;;;;;;;;5022044;28;20397;-58
2023/10/11 03:36:51;;;;;;;12.45;4.72;;;;;;;;;;5029359;28;20041;-58
2023/10/11 03:39:39;;;;;;;12.18;4.90;;;;;;;;;;5027088;28;20033;-58
2023/10/11 03:44:45;;;;;;;13.27;5.22;;;;;;;;;;5024389;28;20037;-59
2023/10/11 03:47:15;;;;;;;12.88;5.38;;;;;;;;;;5024193;28;20497;-58
2023/10/11 03:52:19;;;;;;;10.63;5.07;;;;;;;;;;5024056;28;20048;-59
2023/10/11 03:57:50;;;;;;;13.20;5.53;;;;;;;;;;5019040;28;20060;-59
2023/10/11 04:03:02;;;;;;;16.60;6.40;;;;;;;;;;5023610;28;20037;-59
2023/10/11 04:05:34;;;;;;;;;;;;;;;;;;5017892;28;20504;-58
2023/10/11 04:08:05;;;;;;;15.82;5.63;;;;;;;;;;5023583;28;20327;-58
2023/10/11 04:10:39;;;;;;;11.98;5.07;;;;;;;;;;5025283;28;20463;-57
2023/10/11 04:13:14;;;;;;;15.13;5.68;;;;;;;;;;5021185;28;20453;-58
2023/10/11 04:15:44;;;;;;;13.43;5.47;;;;;;;;;;5023137;28;20033;-59
2023/10/11 04:18:20;;;;;;;13.40;5.97;;;;;;;;;;5020574;28;20044;-58
2023/10/11 04:20:59;;;;;;;14.80;5.95;;;;;;;;;;5017589;28;20054;-59
2023/10/11 04:23:27;;;;;;;16.17;6.30;;;;;;;;;;5020983;28;20060;-58
2023/10/11 04:25:55;;;;;;;16.20;5.95;;;;;;;;;;5023976;28;20044;-57
2023/10/11 04:28:23;;;;;;;15.25;6.20;;;;;;;;;;5022384;28;20044;-57
2023/10/11 04:30:56;;;;;;;17.20;6.25;;;;;;;;;;5016968;28;20052;-58
2023/10/11 04:33:22;;;;;;;18.42;7.22;;;;;;;;;;5023930;28;20053;-58
2023/10/11 04:35:58;;;;;;;15.25;6.75;;;;;;;;;;5022347;28;20045;-58
2023/10/11 04:38:47;;;;;;;;;;;;;;;;;;5019945;28;20033;-57
2023/10/11 04:41:19;;;;;;;20.13;6.15;;;;;;;;;;5023074;28;19920;-59
2023/10/11 04:44:04;;;;;;;17.90;5.72;;;;;;;;;;5022761;28;20037;-58
2023/10/11 04:46:30;;;;;;;17.85;5.90;;;;;;;;;;5017050;28;20841;-58
2023/10/11 04:49:17;;;;;;;16.90;6.00;;;;;;;;;;5018943;28;20519;-59
2023/10/11 04:51:45;;;;;;;17.05;6.30;;;;;;;;;;5018705;28;20057;-58
2023/10/11 04:54:14;;;;;;;19.73;5.60;;;;;;;;;;5021612;28;20064;-58
2023/10/11 04:59:06;;;;;;;16.30;6.43;;;;;;;;;;5023300;28;20509;-58
2023/10/11 05:04:16;;;;;;;19.23;8.10;;;;;;;;;;5022303;28;20064;-56
2023/10/11 05:06:43;;;;;;;21.73;7.00;;;;;;;;;;5025116;28;20049;-58
2023/10/11 05:11:50;;;;;;;;;;;;;;;;;;5020857;28;20425;-58
2023/10/11 05:14:29;;;;;;;17.05;6.78;;;;;;;;;;5023293;28;19943;-58
2023/10/11 05:27:56;;;;;;;19.75;7.15;;;;;;;;;;5019299;28;20034;-57
2023/10/11 05:33:15;;;;;;;;;;;;;;;;;;5025749;28;20034;-57
2023/10/11 05:52:14;;;;;;;26.55;8.77;;;;;;;;;;5025757;28;20034;-57
2023/10/11 05:54:41;;;;;;;30.30;11.50;;;;;;;;;;5027193;28;20045;-57
2023/10/11 05:57:07;;;;;;;32.92;10.18;;;;;;;;;;5026553;28;20040;-56
2023/10/11 05:59:38;;;;;;;21.98;7.93;;;;;;;;;;5028448;28;20428;-57
2023/10/11 06:02:07;;;;;;;25.60;8.30;;;;;;;;;;5025157;28;20038;-57
2023/10/11 06:04:39;;;;;;;21.70;6.82;;;;;;;;;;5022333;28;20416;-58
2023/10/11 06:07:06;;;;;;;29.80;9.10;;;;;;;;;;5025610;28;20501;-58
2023/10/11 06:09:39;;;;;;;24.73;8.27;;;;;;;;;;5051049;28;20409;-58
2023/10/11 06:12:22;;;;;;;29.42;9.68;;;;;;;;;;5023125;28;20056;-58
2023/10/11 06:14:53;;;;;;;24.25;8.13;;;;;;;;;;5019683;28;20406;-58
2023/10/11 06:17:21;;;;;;;24.77;9.98;;;;;;;;;;5022856;28;20029;-57
2023/10/11 06:19:54;;;;;;;20.23;7.68;;;;;;;;;;5021339;28;20056;-58
2023/10/11 06:22:22;;;;;;;20.48;8.93;;;;;;;;;;5018795;28;20041;-58
2023/10/11 06:24:48;;;;;;;21.60;8.00;;;;;;;;;;5017481;28;20425;-58
2023/10/11 06:30:06;;;;;;;26.60;6.95;;;;;;;;;;5027691;28;20052;-58
2023/10/11 06:32:35;;;;;;;25.88;7.40;;;;;;;;;;5024918;28;20058;-58
2023/10/11 06:35:04;;;;;;;26.55;7.90;;;;;;;;;;5033750;28;20441;-58
2023/10/11 06:37:34;;;;;;;18.90;7.63;;;;;;;;;;5028582;28;20036;-58
2023/10/11 06:42:34;;;;;;;26.40;8.88;;;;;;;;;;5026552;28;20029;-58
2023/10/11 06:45:05;;;;;;;31.15;10.50;;;;;;;;;;5024602;28;20042;-57
2023/10/11 06:47:35;;;;;;;34.67;11.20;;;;;;;;;;5020562;28;20468;-58
2023/10/11 06:50:11;;;;;;;37.33;10.45;;;;;;;;;;5024703;28;20038;-57
2023/10/11 06:52:46;;;;;;;36.38;10.60;;;;;;;;;;5026882;28;20045;-57
2023/10/11 06:55:16;;;;;;;34.92;9.07;;;;;;;;;;5024789;28;20075;-57
2023/10/11 06:57:45;;;;;;;28.90;9.25;;;;;;;;;;5028990;28;20515;-58
2023/10/11 07:00:23;;;;;;;26.67;8.05;;;;;;;;;;5023421;28;20061;-58
2023/10/11 07:03:09;;;;;;;21.45;7.35;;;;;;;;;;5024459;28;20108;-57
2023/10/11 07:05:41;;;;;;;21.90;8.35;;;;;;;;;;5023309;28;20041;-58
2023/10/11 07:08:09;;;;;;;26.75;8.07;;;;;;;;;;5023180;28;20132;-58
2023/10/11 07:10:46;;;;;;;25.67;8.88;;;;;;;;;;5019666;28;20046;-58
2023/10/11 07:13:14;;;;;;;29.02;10.20;;;;;;;;;;5021999;28;20046;-58
2023/10/11 07:15:46;;;;;;;27.63;8.77;;;;;;;;;;5019167;28;20402;-58
2023/10/11 07:18:24;;;;;;;35.92;12.05;;;;;;;;;;5018564;28;20524;-58
2023/10/11 07:20:58;;;;;;;36.20;10.23;;;;;;;;;;5018748;28;20040;-57
2023/10/11 07:23:35;;;;;;;33.10;9.85;;;;;;;;;;5018407;28;20804;-58
2023/10/11 07:28:51;;;;;;;35.35;11.23;;;;;;;;;;5024013;28;20029;-58
2023/10/11 07:31:27;;;;;;;35.00;10.77;;;;;;;;;;5048071;28;20052;-59
2023/10/11 07:33:55;;;;;;;32.97;11.32;;;;;;;;;;5023728;28;20026;-58
2023/10/11 07:36:22;;;;;;;34.72;10.30;;;;;;;;;;5024390;28;20034;-59
2023/10/11 07:38:54;;;;;;;32.25;10.52;;;;;;;;;;5025724;28;20036;-58
2023/10/11 07:41:28;;;;;;;30.05;9.40;;;;;;;;;;5024422;28;20037;-57
2023/10/11 07:43:56;;;;;;;32.38;9.88;;;;;;;;;;5022638;28;20041;-57
2023/10/11 07:46:23;;;;;;;36.47;10.25;;;;;;;;;;5018341;28;20062;-58
2023/10/11 07:49:01;;;;;;;36.40;10.77;;;;;;;;;;5022815;28;20060;-57
2023/10/11 07:51:29;;;;;;;34.22;9.40;;;;;;;;;;5022942;28;20045;-57
2023/10/11 07:53:56;;;;;;;36.35;10.30;;;;;;;;;;5025852;28;20036;-58
2023/10/11 07:56:23;;;;;;;38.92;10.80;;;;;;;;;;5023353;28;20056;-57
2023/10/11 07:58:51;;;;;;;37.00;10.60;;;;;;;;;;5022441;28;20029;-57
2023/10/11 08:01:26;;;;;;;31.83;10.48;;;;;;;;;;5023208;28;20037;-57
2023/10/11 08:03:53;;;;;;;38.65;10.35;;;;;;;;;;5023099;28;20040;-57
2023/10/11 08:06:24;;;;;;;28.60;10.10;;;;;;;;;;5023407;28;20354;-57
2023/10/11 08:08:59;;;;;;;30.75;10.65;;;;;;;;;;5020429;28;20038;-57
2023/10/11 08:11:36;;;;;;;34.33;10.23;;;;;;;;;;5020217;28;20067;-57
2023/10/11 08:14:14;;;;;;;26.20;8.77;;;;;;;;;;5020208;28;20578;-57
2023/10/11 08:16:42;;;;;;;32.45;10.00;;;;;;;;;;5017378;28;20033;-57
2023/10/11 08:19:11;;;;;;;38.55;8.98;;;;;;;;;;5022950;28;20037;-57
2023/10/11 08:21:38;;;;;;;33.57;9.30;;;;;;;;;;5023915;28;20037;-58
2023/10/11 08:24:06;;;;;;;36.80;9.43;;;;;;;;;;5021624;28;20295;-57
2023/10/11 08:26:42;;;;;;;49.50;11.38;;;;;;;;;;5022954;28;20025;-57
2023/10/11 08:29:27;;;;;;;29.65;8.57;;;;;;;;;;5024434;28;20041;-58
2023/10/11 08:31:57;;;;;;;33.92;9.48;;;;;;;;;;5020289;28;20049;-58
2023/10/11 08:34:25;;;;;;;25.88;8.30;;;;;;;;;;5021112;28;20053;-58
2023/10/11 08:36:56;;;;;;;39.50;8.82;;;;;;;;;;5025077;28;20404;-58
2023/10/11 08:39:35;;;;;;;37.05;8.73;;;;;;;;;;5021873;28;20049;-60
2023/10/11 08:42:09;;;;;;;34.72;9.95;;;;;;;;;;5023086;28;20045;-58
2023/10/11 08:44:36;;;;;;;29.55;9.85;;;;;;;;;;5020028;28;20048;-58
2023/10/11 08:47:04;;;;;;;37.20;8.98;;;;;;;;;;5022772;28;20029;-58
2023/10/11 08:49:33;;;;;;;32.47;9.85;;;;;;;;;;5023357;28;20041;-58
2023/10/11 08:52:00;;;;;;;29.95;9.40;;;;;;;;;;5022560;28;20030;-58
2023/10/11 08:54:28;;;;;;;26.35;9.13;;;;;;;;;;5023462;28;20045;-58
2023/10/11 08:56:57;;;;;;;32.97;8.90;;;;;;;;;;5023974;28;20045;-58
2023/10/11 08:59:30;;;;;;;41.33;13.13;;;;;;;;;;5022248;28;20054;-58
2023/10/11 09:02:07;;;;;;;32.17;10.88;;;;;;;;;;5020400;28;20037;-58
2023/10/11 09:04:35;;;;;;;32.70;9.57;;;;;;;;;;5021961;28;20041;-58
2023/10/11 09:07:02;;;;;;;34.00;8.85;;;;;;;;;;5022898;28;20413;-58
2023/10/11 09:09:33;;;;;;;32.35;8.95;;;;;;;;;;5020763;28;20053;-58
2023/10/11 09:11:59;;;;;;;45.67;10.25;;;;;;;;;;5018005;28;20037;-58
2023/10/11 09:14:28;;;;;;;24.60;9.18;;;;;;;;;;5021183;28;20053;-58
2023/10/11 09:17:02;;;;;;;29.00;8.93;;;;;;;;;;5019906;28;20493;-58
2023/10/11 09:19:32;;;;;;;27.63;8.38;;;;;;;;;;5019054;28;20037;-57
2023/10/11 09:21:59;;;;;;;23.02;8.23;;;;;;;;;;5022808;28;20037;-57
2023/10/11 09:24:29;;;;;;;30.25;8.85;;;;;;;;;;5021728;28;20049;-62
2023/10/11 09:29:46;;;;;;;37.38;8.13;;;;;;;;;;5018670;28;20049;-58
2023/10/11 09:32:19;;;;;;;31.08;8.32;;;;;;;;;;5019333;28;20056;-59
2023/10/11 09:34:47;;;;;;;30.98;9.18;;;;;;;;;;5018990;28;20053;-59
2023/10/11 09:37:14;;;;;;;30.17;8.23;;;;;;;;;;5021005;28;20049;-58
2023/10/11 09:39:42;;;;;;;27.40;8.27;;;;;;;;;;5022771;28;20041;-57
2023/10/11 09:42:14;;;;;;;37.43;10.90;;;;;;;;;;5022095;28;20044;-57
2023/10/11 09:44:45;;;;;;;27.30;8.43;;;;;;;;;;5041286;28;20053;-57
2023/10/11 09:47:19;;;;;;;25.80;8.07;;;;;;;;;;5023463;28;20037;-57
2023/10/11 09:49:52;;;;;;;29.70;8.20;;;;;;;;;;5023938;28;20036;-57
2023/10/11 09:52:23;;;;;;;31.65;8.70;;;;;;;;;;5022298;28;20036;-58
2023/10/11 09:54:51;;;;;;;28.25;7.68;;;;;;;;;;5026795;28;20432;-58
2023/10/11 09:57:38;;;;;;;25.40;7.25;;;;;;;;;;5021962;28;20461;-58
2023/10/11 10:00:25;;;;;;;28.13;7.97;;;;;;;;;;5020562;28;20052;-58
2023/10/11 10:02:54;;;;;;;24.88;6.97;;;;;;;;;;5023003;28;20073;-58
2023/10/11 10:05:25;;;;;;;24.85;6.30;;;;;;;;;;5024521;28;20405;-58
2023/10/11 10:07:52;;;;;;;30.73;6.63;;;;;;;;;;5026492;28;20029;-58
2023/10/11 10:10:25;;;;;;;18.35;4.90;;;;;;;;;;5022432;28;20400;-57
2023/10/11 10:12:55;;;;;;;25.17;5.78;;;;;;;;;;5020867;28;20042;-58
2023/10/11 10:15:28;;;;;;;16.27;5.28;;;;;;;;;;5025821;28;20045;-58
2023/10/11 10:18:01;;;;;;;15.35;5.40;;;;;;;;;;5026582;28;20037;-58
2023/10/11 10:21:01;;;;;;;25.02;5.40;;;;;;;;;;5024838;28;20037;-58
2023/10/11 10:23:33;;;;;;;24.20;5.25;;;;;;;;;;5024216;28;20053;-58
2023/10/11 10:26:11;;;;;;;25.42;5.35;;;;;;;;;;5021812;28;20065;-58
2023/10/11 10:28:45;;;;;;;18.10;5.83;;;;;;;;;;5021700;28;20432;-58
2023/10/11 10:31:17;;;;;;;18.83;5.40;;;;;;;;;;5023479;28;20287;-58
2023/10/11 10:33:49;;;;;;;25.77;5.30;;;;;;;;;;5021725;28;20056;-58
2023/10/11 10:36:20;;;;;;;18.77;5.25;;;;;;;;;;5025629;28;20424;-58
2023/10/11 10:41:41;;;;;;;19.20;5.15;;;;;;;;;;5022938;28;20037;-58
2023/10/11 10:44:10;;;;;;;18.60;5.13;;;;;;;;;;5027044;28;20224;-57
2023/10/11 10:46:50;;;;;;;22.45;7.05;;;;;;;;;;5026728;28;20045;-57
2023/10/11 10:49:17;;;;;;;28.20;6.20;;;;;;;;;;5024756;28;20034;-58
2023/10/11 10:51:47;;;;;;;19.05;5.07;;;;;;;;;;5024959;28;20532;-58
2023/10/11 10:54:17;;;;;;;18.35;5.28;;;;;;;;;;5023728;28;20409;-58
2023/10/11 10:56:47;;;;;;;20.10;5.38;;;;;;;;;;5020969;28;20045;-58
2023/10/11 10:59:20;;;;;;;18.17;5.10;;;;;;;;;;5022438;28;20033;-58
2023/10/11 11:01:50;;;;;;;20.90;5.10;;;;;;;;;;5022148;28;20062;-59
2023/10/11 11:04:24;;;;;;;20.48;5.32;;;;;;;;;;5023084;28;20045;-56
2023/10/11 11:06:53;;;;;;;16.10;4.90;;;;;;;;;;5024975;28;20049;-65
2023/10/11 11:09:25;;;;;;;18.30;5.10;;;;;;;;;;5022491;28;20054;-58
2023/10/11 11:11:55;;;;;;;17.42;4.90;;;;;;;;;;5021931;28;20354;-59
2023/10/11 11:14:23;;;;;;;14.57;5.20;;;;;;;;;;5026743;28;20049;-57
2023/10/11 11:17:00;;;;;;;21.35;5.57;;;;;;;;;;5024556;28;20036;-57
2023/10/11 11:19:27;;;;;;;23.13;4.72;;;;;;;;;;5023689;28;20037;-58
2023/10/11 11:22:12;;;;;;;16.92;4.70;;;;;;;;;;5025474;28;20049;-57
2023/10/11 11:24:41;;;;;;;20.00;5.18;;;;;;;;;;5022844;28;20033;-58
2023/10/11 11:27:28;;;;;;;16.58;5.18;;;;;;;;;;5020848;28;20038;-58
2023/10/11 11:30:02;;;;;;;13.55;5.00;;;;;;;;;;5022008;28;20354;-58
2023/10/11 11:32:38;;;;;;;19.40;5.00;;;;;;;;;;5022463;28;20037;-58
2023/10/11 11:35:10;;;;;;;11.85;4.78;;;;;;;;;;5025523;28;20045;-56
2023/10/11 11:37:39;;;;;;;15.90;5.18;;;;;;;;;;5024539;28;20060;-58
2023/10/11 11:40:24;;;;;;;20.58;5.63;;;;;;;;;;5028378;28;20040;-60
2023/10/11 11:42:51;;;;;;;20.13;4.95;;;;;;;;;;5023988;28;20053;-57
2023/10/11 11:45:19;;;;;;;22.58;5.20;;;;;;;;;;5023421;28;20058;-58
2023/10/11 11:48:00;;;;;;;23.02;5.68;;;;;;;;;;5025424;28;20523;-58
2023/10/11 11:50:33;;;;;;;19.08;5.38;;;;;;;;;;5023081;28;20501;-56
2023/10/11 11:53:01;;;;;;;13.18;4.53;;;;;;;;;;5021171;28;20034;-55
2023/10/11 11:55:28;;;;;;;18.10;4.90;;;;;;;;;;5022054;28;20037;-57
2023/10/11 11:57:55;;;;;;;11.80;4.75;;;;;;;;;;5023094;28;20033;-57
2023/10/11 12:02:58;;;;;;;13.30;4.32;;;;;;;;;;5024902;28;20105;-57
2023/10/11 12:05:27;;;;;;;17.23;4.57;;;;;;;;;;5026708;28;20053;-57
2023/10/11 12:07:58;;;;;;;14.07;4.28;;;;;;;;;;5023999;28;20499;-59
2023/10/11 12:10:25;;;;;;;18.23;4.78;;;;;;;;;;5024670;28;20056;-57
2023/10/11 12:12:54;;;;;;;10.02;3.67;;;;;;;;;;5028589;28;20045;-57
2023/10/11 12:15:22;;;;;;;12.10;4.43;;;;;;;;;;5026827;28;20053;-57
2023/10/11 12:17:50;;;;;;;15.43;4.10;;;;;;;;;;5028845;28;20041;-58
2023/10/11 12:20:18;;;;;;;12.45;4.88;;;;;;;;;;5020323;28;20498;-56
2023/10/11 12:22:46;;;;;;;;;;;;;;;;;;5025203;28;20049;-57
2023/10/11 12:25:13;;;;;;;11.80;3.80;;;;;;;;;;5021733;28;19913;-57
2023/10/11 12:27:43;;;;;;;17.40;4.22;;;;;;;;;;5022331;28;20040;-57
2023/10/11 12:30:22;;;;;;;11.77;4.22;;;;;;;;;;5024033;28;20052;-57
2023/10/11 12:32:51;;;;;;;16.55;6.65;;;;;;;;;;5023433;28;20382;-57
2023/10/11 12:35:23;;;;;;;11.82;3.80;;;;;;;;;;5021707;28;20037;-58
2023/10/11 12:37:50;;;;;;;13.63;4.47;;;;;;;;;;5021285;28;20029;-57
2023/10/11 12:40:22;;;;;;;15.77;4.03;;;;;;;;;;5025181;28;20049;-58
2023/10/11 12:42:50;;;;;;;13.50;3.80;;;;;;;;;;5021376;28;20040;-56
2023/10/11 12:45:18;;;;;;;12.27;4.10;;;;;;;;;;5025721;28;20056;-57
2023/10/11 12:47:45;;;;;;;11.98;3.47;;;;;;;;;;5022757;28;20038;-56
2023/10/11 12:50:17;;;;;;;14.18;4.07;;;;;;;;;;5021160;28;20061;-56
2023/10/11 12:52:45;;;;;;;13.35;4.05;;;;;;;;;;5023280;28;20050;-58
2023/10/11 12:55:12;;;;;;;12.85;3.67;;;;;;;;;;5018496;28;20052;-58
2023/10/11 12:57:39;;;;;;;13.25;3.80;;;;;;;;;;5021042;28;20046;-57
2023/10/11 13:00:28;;;;;;;16.23;4.00;;;;;;;;;;5024816;28;20432;-58
2023/10/11 13:02:58;;;;;;;13.20;3.77;;;;;;;;;;5019629;28;20421;-58
2023/10/11 13:05:28;;;;;;;10.63;3.47;;;;;;;;;;5018740;28;20304;-58
2023/10/11 13:07:54;;;;;;;13.18;3.70;;;;;;;;;;5023626;28;20045;-57
2023/10/11 13:10:24;;;;;;;13.82;3.45;;;;;;;;;;5024208;28;20033;-57
2023/10/11 13:12:53;;;;;;;13.38;3.15;;;;;;;;;;5026168;28;20032;-58
2023/10/11 13:15:23;;;;;;;13.18;3.17;;;;;;;;;;5026319;28;20041;-58
2023/10/11 13:17:49;;;;;;;15.85;3.60;;;;;;;;;;5018428;28;20034;-58
2023/10/11 13:20:18;;;;;;;16.40;3.50;;;;;;;;;;5023927;28;20404;-57
2023/10/11 13:22:47;;;;;;;10.07;3.58;;;;;;;;;;5022100;28;20033;-58
2023/10/11 13:25:23;;;;;;;10.65;3.45;;;;;;;;;;5020862;28;20507;-58
2023/10/11 13:27:54;;;;;;;13.50;3.90;;;;;;;;;;5022037;28;20029;-58
2023/10/11 13:30:24;;;;;;;11.52;3.30;;;;;;;;;;5027753;28;20050;-57
2023/10/11 13:32:51;;;;;;;13.18;3.60;;;;;;;;;;5019522;28;20126;-58
2023/10/11 13:35:19;;;;;;;10.73;3.08;;;;;;;;;;5024958;28;20489;-58
2023/10/11 13:37:48;;;;;;;12.35;3.55;;;;;;;;;;5027066;28;20044;-57
2023/10/11 13:40:18;;;;;;;10.13;3.50;;;;;;;;;;5029291;28;20100;-58
2023/10/11 13:42:44;;;;;;;10.93;3.33;;;;;;;;;;5025828;28;20060;-58
2023/10/11 13:45:14;;;;;;;15.77;4.07;;;;;;;;;;5026619;28;20056;-57
2023/10/11 13:47:41;;;;;;;9.38;3.65;;;;;;;;;;5027081;28;20033;-58
2023/10/11 13:50:20;;;;;;;12.15;3.58;;;;;;;;;;5023905;28;20034;-58
2023/10/11 13:52:52;;;;;;;10.45;3.35;;;;;;;;;;5025276;28;20033;-57
2023/10/11 13:55:23;;;;;;;9.88;3.53;;;;;;;;;;5023451;28;20041;-58
2023/10/11 13:57:53;;;;;;;9.27;3.28;;;;;;;;;;5020193;28;20050;-58
2023/10/11 14:05:46;;;;;;;12.45;3.50;;;;;;;;;;5027675;28;20050;-60
2023/10/11 14:08:24;;;;;;;10.93;2.90;;;;;;;;;;5026932;28;20045;-60
2023/10/11 14:10:51;;;;;;;9.77;3.15;;;;;;;;;;5028187;28;20040;-60
2023/10/11 14:13:24;;;;;;;10.32;3.40;;;;;;;;;;5027079;28;20034;-59
2023/10/11 14:15:51;;;;;;;7.53;3.38;;;;;;;;;;5025633;28;20053;-60
2023/10/11 14:18:19;;;;;;;9.20;3.60;;;;;;;;;;5024815;28;20393;-60
2023/10/11 14:20:55;;;;;;;10.10;3.42;;;;;;;;;;5023983;28;20025;-60
2023/10/11 14:23:26;;;;;;;8.90;3.65;;;;;;;;;;5026004;28;20050;-58
2023/10/11 14:25:53;;;;;;;11.23;3.25;;;;;;;;;;5023193;28;21641;-59
2023/10/11 14:28:19;;;;;;;7.88;3.30;;;;;;;;;;5026321;28;20417;-59
2023/10/11 14:30:49;;;;;;;14.40;3.15;;;;;;;;;;5026833;28;20029;-59
2023/10/11 14:33:18;;;;;;;9.93;3.33;;;;;;;;;;5026051;28;20044;-59
2023/10/11 14:35:47;;;;;;;10.82;3.05;;;;;;;;;;5032290;28;20041;-58
2023/10/11 14:38:14;;;;;;;9.93;3.05;;;;;;;;;;5025378;28;20034;-59
2023/10/11 14:40:44;;;;;;;11.35;2.97;;;;;;;;;;5025711;28;20053;-58
2023/10/11 14:43:14;;;;;;;9.73;3.50;;;;;;;;;;5027482;28;20045;-59
2023/10/11 14:45:41;;;;;;;13.43;3.83;;;;;;;;;;5022968;28;20429;-59
2023/10/11 14:48:10;;;;;;;13.82;3.13;;;;;;;;;;5022283;28;20061;-59
2023/10/11 14:50:38;;;;;;;9.82;3.42;;;;;;;;;;5025481;28;20409;-59
2023/10/11 14:53:04;;;;;;;9.40;3.70;;;;;;;;;;5023097;28;20045;-59
2023/10/11 14:55:34;;;;;;;7.15;3.13;;;;;;;;;;5021174;28;20056;-60
2023/10/11 14:58:01;;;;;;;8.25;3.58;;;;;;;;;;5021760;28;20494;-59
2023/10/11 15:00:33;;;;;;;8.23;3.30;;;;;;;;;;5022383;28;20037;-59
2023/10/11 15:03:00;;;;;;;11.52;3.45;;;;;;;;;;5027651;28;20440;-59
2023/10/11 15:05:31;;;;;;;14.00;3.45;;;;;;;;;;5026220;28;20033;-59
2023/10/11 15:07:57;;;;;;;8.07;3.08;;;;;;;;;;5028334;28;20064;-59
2023/10/11 15:10:23;;;;;;;11.48;3.67;;;;;;;;;;5028023;28;20064;-59
2023/10/11 15:12:51;;;;;;;8.52;3.22;;;;;;;;;;5026212;28;20045;-59
2023/10/11 15:15:20;;;;;;;10.52;3.80;;;;;;;;;;5026748;28;20034;-58
2023/10/11 15:17:52;;;;;;;8.90;3.42;;;;;;;;;;5019034;28;20041;-59
2023/10/11 15:20:20;;;;;;;7.95;3.33;;;;;;;;;;5022859;28;20068;-59
2023/10/11 15:22:54;;;;;;;14.02;3.83;;;;;;;;;;5021987;28;20539;-59
2023/10/11 15:25:21;;;;;;;18.42;3.75;;;;;;;;;;5020874;28;20041;-59
2023/10/11 15:27:48;;;;;;;9.07;3.20;;;;;;;;;;5023528;28;20404;-59
2023/10/11 15:30:14;;;;;;;8.93;3.13;;;;;;;;;;5026816;28;20056;-58
2023/10/11 15:32:40;;;;;;;12.43;3.65;;;;;;;;;;5026753;28;20037;-58
2023/10/11 15:35:07;;;;;;;10.45;3.45;;;;;;;;;;5025254;28;20056;-59
2023/10/11 15:37:33;;;;;;;8.00;3.22;;;;;;;;;;5026448;28;20053;-59
2023/10/11 15:39:59;;;;;;;16.67;4.07;;;;;;;;;;5026730;28;20044;-59
2023/10/11 15:42:28;;;;;;;10.70;3.42;;;;;;;;;;5021392;28;20034;-59
2023/10/11 15:44:54;;;;;;;10.73;4.13;;;;;;;;;;5022802;28;20493;-60
2023/10/11 15:47:20;;;;;;;8.48;3.60;;;;;;;;;;5025699;28;20033;-59
2023/10/11 15:49:46;;;;;;;10.23;3.33;;;;;;;;;;5022503;28;20037;-59
2023/10/11 15:52:13;;;;;;;11.13;3.50;;;;;;;;;;5022457;28;20033;-59
2023/10/11 15:54:39;;;;;;;15.90;4.70;;;;;;;;;;5021371;28;20037;-59
2023/10/11 15:57:07;;;;;;;10.45;4.53;;;;;;;;;;5022722;28;20037;-59
2023/10/11 15:59:34;;;;;;;10.27;4.82;;;;;;;;;;5027736;28;20056;-58
2023/10/11 16:02:05;;;;;;;14.52;5.00;;;;;;;;;;5025729;28;20029;-59
2023/10/11 16:04:32;;;;;;;12.90;4.88;;;;;;;;;;5026012;28;20037;-58
2023/10/11 16:06:58;;;;;;;10.23;4.10;;;;;;;;;;5027842;28;20044;-58